sensor_id;sensor_type;location;lat;lon;timestamp;P1;durP1;ratioP1;P2;durP2;ratioP2
62796;SDS011;48839;48.546;-4.178;2022-11-12T00:02:25;17.50;;;9.80;;
62796;SDS011;48839;48.546;-4.178;2022-11-12T00:04:51;18.42;;;10.18;;
62796;SDS011;48839;48.546;-4.178;2022-11-12T00:07:17;18.67;;;10.05;;
62796;SDS011;48839;48.546;-4.178;2022-11-12T00:09:43;18.13;;;10.02;;
62796;SDS011;48839;48.546;-4.178;2022-11-12T00:12:09;17.83;;;9.75;;
62796;SDS011;48839;48.546;-4.178;2022-11-12T00:14:35;19.52;;;10.23;;
62796;SDS011;48839;48.546;-4.178;2022-11-12T00:17:02;22.83;;;9.68;;
62796;SDS011;48839;48.546;-4.178;2022-11-12T00:19:28;19.60;;;10.90;;
62796;SDS011;48839;48.546;-4.178;2022-11-12T00:21:54;18.05;;;9.85;;
62796;SDS011;48839;48.546;-4.178;2022-11-12T00:24:20;20.95;;;10.27;;
62796;SDS011;48839;48.546;-4.178;2022-11-12T00:26:46;18.67;;;9.57;;
62796;SDS011;48839;48.546;-4.178;2022-11-12T00:29:12;16.92;;;10.15;;
62796;SDS011;48839;48.546;-4.178;2022-11-12T00:31:38;17.15;;;9.75;;
62796;SDS011;48839;48.546;-4.178;2022-11-12T00:34:04;16.27;;;9.32;;
62796;SDS011;48839;48.546;-4.178;2022-11-12T00:36:30;17.67;;;9.75;;
62796;SDS011;48839;48.546;-4.178;2022-11-12T00:38:56;17.40;;;9.65;;
62796;SDS011;48839;48.546;-4.178;2022-11-12T00:41:22;18.67;;;10.32;;
62796;SDS011;48839;48.546;-4.178;2022-11-12T00:43:48;17.08;;;9.73;;
62796;SDS011;48839;48.546;-4.178;2022-11-12T00:46:14;17.77;;;10.07;;
62796;SDS011;48839;48.546;-4.178;2022-11-12T00:48:40;15.80;;;9.75;;
62796;SDS011;48839;48.546;-4.178;2022-11-12T00:51:06;16.92;;;9.45;;
62796;SDS011;48839;48.546;-4.178;2022-11-12T00:53:32;17.33;;;9.55;;
62796;SDS011;48839;48.546;-4.178;2022-11-12T00:55:59;17.60;;;9.55;;
62796;SDS011;48839;48.546;-4.178;2022-11-12T00:58:27;15.70;;;9.20;;
62796;SDS011;48839;48.546;-4.178;2022-11-12T01:00:53;15.70;;;9.80;;
62796;SDS011;48839;48.546;-4.178;2022-11-12T01:03:19;17.65;;;10.10;;
62796;SDS011;48839;48.546;-4.178;2022-11-12T01:05:45;19.40;;;9.90;;
62796;SDS011;48839;48.546;-4.178;2022-11-12T01:08:11;15.60;;;9.45;;
62796;SDS011;48839;48.546;-4.178;2022-11-12T01:10:36;20.50;;;10.73;;
62796;SDS011;48839;48.546;-4.178;2022-11-12T01:13:02;18.83;;;10.52;;
62796;SDS011;48839;48.546;-4.178;2022-11-12T01:15:28;21.23;;;11.80;;
62796;SDS011;48839;48.546;-4.178;2022-11-12T01:17:54;20.48;;;10.88;;
62796;SDS011;48839;48.546;-4.178;2022-11-12T01:20:20;19.15;;;11.18;;
62796;SDS011;48839;48.546;-4.178;2022-11-12T01:22:46;21.05;;;11.90;;
62796;SDS011;48839;48.546;-4.178;2022-11-12T01:25:12;17.23;;;9.43;;
62796;SDS011;48839;48.546;-4.178;2022-11-12T01:27:38;24.70;;;10.80;;
62796;SDS011;48839;48.546;-4.178;2022-11-12T01:30:05;17.95;;;10.43;;
62796;SDS011;48839;48.546;-4.178;2022-11-12T01:32:34;24.52;;;10.52;;
62796;SDS011;48839;48.546;-4.178;2022-11-12T01:35:01;18.33;;;9.82;;
62796;SDS011;48839;48.546;-4.178;2022-11-12T01:37:27;22.58;;;9.80;;
62796;SDS011;48839;48.546;-4.178;2022-11-12T01:39:53;17.20;;;10.80;;
62796;SDS011;48839;48.546;-4.178;2022-11-12T01:42:19;21.02;;;11.32;;
62796;SDS011;48839;48.546;-4.178;2022-11-12T01:44:45;22.02;;;12.52;;
62796;SDS011;48839;48.546;-4.178;2022-11-12T01:47:21;18.88;;;10.95;;
62796;SDS011;48839;48.546;-4.178;2022-11-12T01:52:47;20.92;;;10.27;;
62796;SDS011;48839;48.546;-4.178;2022-11-12T01:55:19;21.27;;;10.05;;
62796;SDS011;48839;48.546;-4.178;2022-11-12T01:57:48;21.63;;;11.02;;
62796;SDS011;48839;48.546;-4.178;2022-11-12T02:00:17;21.88;;;10.20;;
62796;SDS011;48839;48.546;-4.178;2022-11-12T02:02:44;23.23;;;10.52;;
62796;SDS011;48839;48.546;-4.178;2022-11-12T02:05:11;18.42;;;9.85;;
62796;SDS011;48839;48.546;-4.178;2022-11-12T02:07:38;22.77;;;11.80;;
62796;SDS011;48839;48.546;-4.178;2022-11-12T02:10:05;23.27;;;10.40;;
62796;SDS011;48839;48.546;-4.178;2022-11-12T02:12:32;20.40;;;10.75;;
62796;SDS011;48839;48.546;-4.178;2022-11-12T02:15:17;16.70;;;9.93;;
62796;SDS011;48839;48.546;-4.178;2022-11-12T02:17:43;16.25;;;9.43;;
62796;SDS011;48839;48.546;-4.178;2022-11-12T02:20:09;20.38;;;10.48;;
62796;SDS011;48839;48.546;-4.178;2022-11-12T02:22:36;15.98;;;8.90;;
62796;SDS011;48839;48.546;-4.178;2022-11-12T02:25:02;18.92;;;10.40;;
62796;SDS011;48839;48.546;-4.178;2022-11-12T02:27:29;21.08;;;11.55;;
62796;SDS011;48839;48.546;-4.178;2022-11-12T02:29:55;20.00;;;11.23;;
62796;SDS011;48839;48.546;-4.178;2022-11-12T02:32:21;22.67;;;10.95;;
62796;SDS011;48839;48.546;-4.178;2022-11-12T02:34:47;23.98;;;12.85;;
62796;SDS011;48839;48.546;-4.178;2022-11-12T02:37:13;22.05;;;11.18;;
62796;SDS011;48839;48.546;-4.178;2022-11-12T02:39:39;23.17;;;12.02;;
62796;SDS011;48839;48.546;-4.178;2022-11-12T02:42:05;29.60;;;12.45;;
62796;SDS011;48839;48.546;-4.178;2022-11-12T02:44:31;23.63;;;12.13;;
62796;SDS011;48839;48.546;-4.178;2022-11-12T02:46:57;21.70;;;10.75;;
62796;SDS011;48839;48.546;-4.178;2022-11-12T02:49:23;18.45;;;9.77;;
62796;SDS011;48839;48.546;-4.178;2022-11-12T02:51:49;19.52;;;10.20;;
62796;SDS011;48839;48.546;-4.178;2022-11-12T02:54:15;17.95;;;9.55;;
62796;SDS011;48839;48.546;-4.178;2022-11-12T02:56:41;18.38;;;9.73;;
62796;SDS011;48839;48.546;-4.178;2022-11-12T02:59:07;16.40;;;10.18;;
62796;SDS011;48839;48.546;-4.178;2022-11-12T03:01:33;15.95;;;8.70;;
62796;SDS011;48839;48.546;-4.178;2022-11-12T03:03:59;13.48;;;8.43;;
62796;SDS011;48839;48.546;-4.178;2022-11-12T03:06:25;14.63;;;9.32;;
62796;SDS011;48839;48.546;-4.178;2022-11-12T03:08:51;12.30;;;8.50;;
62796;SDS011;48839;48.546;-4.178;2022-11-12T03:11:17;15.65;;;8.05;;
62796;SDS011;48839;48.546;-4.178;2022-11-12T03:13:43;15.20;;;8.02;;
62796;SDS011;48839;48.546;-4.178;2022-11-12T03:16:09;14.95;;;8.65;;
62796;SDS011;48839;48.546;-4.178;2022-11-12T03:18:35;14.55;;;8.48;;
62796;SDS011;48839;48.546;-4.178;2022-11-12T03:21:02;12.90;;;7.95;;
62796;SDS011;48839;48.546;-4.178;2022-11-12T03:23:28;14.63;;;7.40;;
62796;SDS011;48839;48.546;-4.178;2022-11-12T03:25:55;13.75;;;7.88;;
62796;SDS011;48839;48.546;-4.178;2022-11-12T03:28:21;12.52;;;7.97;;
62796;SDS011;48839;48.546;-4.178;2022-11-12T03:30:47;13.10;;;7.25;;
62796;SDS011;48839;48.546;-4.178;2022-11-12T03:33:13;12.48;;;7.40;;
62796;SDS011;48839;48.546;-4.178;2022-11-12T03:35:39;10.80;;;6.93;;
62796;SDS011;48839;48.546;-4.178;2022-11-12T03:38:06;25.00;;;7.85;;
62796;SDS011;48839;48.546;-4.178;2022-11-12T03:40:32;12.40;;;6.90;;
62796;SDS011;48839;48.546;-4.178;2022-11-12T03:42:58;10.55;;;6.70;;
62796;SDS011;48839;48.546;-4.178;2022-11-12T03:45:24;13.82;;;6.75;;
62796;SDS011;48839;48.546;-4.178;2022-11-12T03:47:52;12.98;;;7.20;;
62796;SDS011;48839;48.546;-4.178;2022-11-12T03:50:18;10.32;;;6.53;;
62796;SDS011;48839;48.546;-4.178;2022-11-12T03:52:45;9.75;;;6.00;;
62796;SDS011;48839;48.546;-4.178;2022-11-12T03:55:12;10.10;;;6.15;;
62796;SDS011;48839;48.546;-4.178;2022-11-12T03:57:38;9.68;;;5.93;;
62796;SDS011;48839;48.546;-4.178;2022-11-12T04:00:05;14.35;;;5.97;;
62796;SDS011;48839;48.546;-4.178;2022-11-12T04:02:31;7.72;;;5.85;;
62796;SDS011;48839;48.546;-4.178;2022-11-12T04:04:57;13.77;;;6.55;;
62796;SDS011;48839;48.546;-4.178;2022-11-12T04:07:42;9.05;;;5.65;;
62796;SDS011;48839;48.546;-4.178;2022-11-12T04:10:26;7.75;;;5.35;;
62796;SDS011;48839;48.546;-4.178;2022-11-12T04:12:54;10.85;;;5.10;;
62796;SDS011;48839;48.546;-4.178;2022-11-12T04:15:38;11.15;;;5.90;;
62796;SDS011;48839;48.546;-4.178;2022-11-12T04:18:04;6.75;;;5.45;;
62796;SDS011;48839;48.546;-4.178;2022-11-12T04:20:49;8.30;;;4.55;;
62796;SDS011;48839;48.546;-4.178;2022-11-12T04:23:33;7.47;;;5.10;;
62796;SDS011;48839;48.546;-4.178;2022-11-12T04:25:59;8.70;;;4.65;;
62796;SDS011;48839;48.546;-4.178;2022-11-12T04:28:44;6.85;;;4.75;;
62796;SDS011;48839;48.546;-4.178;2022-11-12T04:31:29;10.32;;;4.75;;
62796;SDS011;48839;48.546;-4.178;2022-11-12T04:33:55;7.43;;;4.20;;
62796;SDS011;48839;48.546;-4.178;2022-11-12T04:36:41;7.15;;;5.25;;
62796;SDS011;48839;48.546;-4.178;2022-11-12T04:39:07;6.60;;;4.45;;
62796;SDS011;48839;48.546;-4.178;2022-11-12T04:41:32;9.77;;;4.68;;
62796;SDS011;48839;48.546;-4.178;2022-11-12T04:44:17;5.95;;;3.70;;
62796;SDS011;48839;48.546;-4.178;2022-11-12T04:47:01;9.82;;;4.35;;
62796;SDS011;48839;48.546;-4.178;2022-11-12T04:49:27;8.40;;;3.65;;
62796;SDS011;48839;48.546;-4.178;2022-11-12T04:51:53;7.70;;;4.35;;
62796;SDS011;48839;48.546;-4.178;2022-11-12T04:54:32;7.75;;;4.60;;
62796;SDS011;48839;48.546;-4.178;2022-11-12T04:56:58;8.20;;;4.88;;
62796;SDS011;48839;48.546;-4.178;2022-11-12T04:59:24;8.18;;;4.50;;
62796;SDS011;48839;48.546;-4.178;2022-11-12T05:01:50;5.45;;;4.10;;
62796;SDS011;48839;48.546;-4.178;2022-11-12T05:04:17;6.60;;;4.47;;
62796;SDS011;48839;48.546;-4.178;2022-11-12T05:06:43;7.00;;;4.50;;
62796;SDS011;48839;48.546;-4.178;2022-11-12T05:09:15;7.80;;;4.93;;
62796;SDS011;48839;48.546;-4.178;2022-11-12T05:11:41;10.15;;;5.15;;
62796;SDS011;48839;48.546;-4.178;2022-11-12T05:14:07;9.73;;;5.72;;
62796;SDS011;48839;48.546;-4.178;2022-11-12T05:16:33;10.75;;;4.82;;
62796;SDS011;48839;48.546;-4.178;2022-11-12T05:18:59;11.95;;;5.65;;
62796;SDS011;48839;48.546;-4.178;2022-11-12T05:21:25;6.93;;;4.80;;
62796;SDS011;48839;48.546;-4.178;2022-11-12T05:24:10;7.47;;;4.88;;
62796;SDS011;48839;48.546;-4.178;2022-11-12T05:26:36;8.07;;;4.97;;
62796;SDS011;48839;48.546;-4.178;2022-11-12T05:29:02;13.25;;;5.30;;
62796;SDS011;48839;48.546;-4.178;2022-11-12T05:31:28;8.35;;;4.82;;
62796;SDS011;48839;48.546;-4.178;2022-11-12T05:33:54;11.43;;;5.57;;
62796;SDS011;48839;48.546;-4.178;2022-11-12T05:36:20;7.43;;;5.45;;
62796;SDS011;48839;48.546;-4.178;2022-11-12T05:38:46;9.70;;;5.65;;
62796;SDS011;48839;48.546;-4.178;2022-11-12T05:41:12;9.57;;;5.43;;
62796;SDS011;48839;48.546;-4.178;2022-11-12T05:43:38;8.90;;;5.85;;
62796;SDS011;48839;48.546;-4.178;2022-11-12T05:46:04;16.65;;;5.20;;
62796;SDS011;48839;48.546;-4.178;2022-11-12T05:48:30;10.45;;;5.57;;
62796;SDS011;48839;48.546;-4.178;2022-11-12T05:50:56;8.00;;;5.85;;
62796;SDS011;48839;48.546;-4.178;2022-11-12T05:53:22;10.85;;;5.50;;
62796;SDS011;48839;48.546;-4.178;2022-11-12T05:55:48;10.63;;;5.15;;
62796;SDS011;48839;48.546;-4.178;2022-11-12T05:58:14;9.43;;;7.00;;
62796;SDS011;48839;48.546;-4.178;2022-11-12T06:00:40;8.48;;;5.38;;
62796;SDS011;48839;48.546;-4.178;2022-11-12T06:03:07;8.00;;;5.63;;
62796;SDS011;48839;48.546;-4.178;2022-11-12T06:05:33;10.35;;;5.50;;
62796;SDS011;48839;48.546;-4.178;2022-11-12T06:08:00;8.70;;;5.22;;
62796;SDS011;48839;48.546;-4.178;2022-11-12T06:10:26;11.25;;;6.50;;
62796;SDS011;48839;48.546;-4.178;2022-11-12T06:12:52;12.63;;;5.85;;
62796;SDS011;48839;48.546;-4.178;2022-11-12T06:15:18;11.05;;;6.72;;
62796;SDS011;48839;48.546;-4.178;2022-11-12T06:17:45;12.13;;;6.75;;
62796;SDS011;48839;48.546;-4.178;2022-11-12T06:20:11;10.07;;;7.10;;
62796;SDS011;48839;48.546;-4.178;2022-11-12T06:22:37;10.77;;;6.32;;
62796;SDS011;48839;48.546;-4.178;2022-11-12T06:25:03;11.57;;;5.90;;
62796;SDS011;48839;48.546;-4.178;2022-11-12T06:27:30;10.85;;;6.05;;
62796;SDS011;48839;48.546;-4.178;2022-11-12T06:29:56;8.48;;;5.57;;
62796;SDS011;48839;48.546;-4.178;2022-11-12T06:32:22;11.90;;;6.85;;
62796;SDS011;48839;48.546;-4.178;2022-11-12T06:34:48;13.07;;;5.60;;
62796;SDS011;48839;48.546;-4.178;2022-11-12T06:37:16;13.05;;;6.70;;
62796;SDS011;48839;48.546;-4.178;2022-11-12T06:39:42;11.13;;;7.32;;
62796;SDS011;48839;48.546;-4.178;2022-11-12T06:42:08;12.68;;;6.35;;
62796;SDS011;48839;48.546;-4.178;2022-11-12T06:44:34;13.95;;;8.00;;
62796;SDS011;48839;48.546;-4.178;2022-11-12T06:47:01;11.75;;;6.45;;
62796;SDS011;48839;48.546;-4.178;2022-11-12T06:49:27;15.43;;;5.93;;
62796;SDS011;48839;48.546;-4.178;2022-11-12T06:51:53;12.45;;;6.50;;
62796;SDS011;48839;48.546;-4.178;2022-11-12T06:54:19;15.85;;;6.60;;
62796;SDS011;48839;48.546;-4.178;2022-11-12T06:56:45;15.25;;;6.88;;
62796;SDS011;48839;48.546;-4.178;2022-11-12T06:59:11;9.57;;;6.50;;
62796;SDS011;48839;48.546;-4.178;2022-11-12T07:01:37;18.88;;;7.35;;
62796;SDS011;48839;48.546;-4.178;2022-11-12T07:04:03;12.18;;;7.40;;
62796;SDS011;48839;48.546;-4.178;2022-11-12T07:06:29;11.70;;;6.60;;
62796;SDS011;48839;48.546;-4.178;2022-11-12T07:08:55;12.68;;;6.95;;
62796;SDS011;48839;48.546;-4.178;2022-11-12T07:11:21;14.13;;;7.70;;
62796;SDS011;48839;48.546;-4.178;2022-11-12T07:13:47;13.95;;;6.78;;
62796;SDS011;48839;48.546;-4.178;2022-11-12T07:16:13;14.43;;;6.72;;
62796;SDS011;48839;48.546;-4.178;2022-11-12T07:18:42;10.80;;;6.05;;
62796;SDS011;48839;48.546;-4.178;2022-11-12T07:21:09;12.15;;;6.18;;
62796;SDS011;48839;48.546;-4.178;2022-11-12T07:23:36;13.00;;;6.50;;
62796;SDS011;48839;48.546;-4.178;2022-11-12T07:26:03;12.90;;;6.57;;
62796;SDS011;48839;48.546;-4.178;2022-11-12T07:28:29;10.82;;;6.90;;
62796;SDS011;48839;48.546;-4.178;2022-11-12T07:30:56;12.25;;;6.75;;
62796;SDS011;48839;48.546;-4.178;2022-11-12T07:33:22;9.73;;;6.35;;
62796;SDS011;48839;48.546;-4.178;2022-11-12T07:35:54;11.48;;;6.63;;
62796;SDS011;48839;48.546;-4.178;2022-11-12T07:38:21;11.43;;;6.32;;
62796;SDS011;48839;48.546;-4.178;2022-11-12T07:40:47;14.75;;;6.60;;
62796;SDS011;48839;48.546;-4.178;2022-11-12T07:43:13;12.88;;;6.85;;
62796;SDS011;48839;48.546;-4.178;2022-11-12T07:45:39;13.18;;;7.20;;
62796;SDS011;48839;48.546;-4.178;2022-11-12T07:48:05;15.50;;;6.47;;
62796;SDS011;48839;48.546;-4.178;2022-11-12T07:50:31;13.10;;;6.90;;
62796;SDS011;48839;48.546;-4.178;2022-11-12T07:52:57;12.02;;;6.93;;
62796;SDS011;48839;48.546;-4.178;2022-11-12T07:55:23;17.73;;;7.85;;
62796;SDS011;48839;48.546;-4.178;2022-11-12T07:57:49;13.13;;;6.53;;
62796;SDS011;48839;48.546;-4.178;2022-11-12T08:00:17;12.50;;;6.53;;
62796;SDS011;48839;48.546;-4.178;2022-11-12T08:02:43;15.57;;;6.95;;
62796;SDS011;48839;48.546;-4.178;2022-11-12T08:05:09;10.75;;;5.55;;
62796;SDS011;48839;48.546;-4.178;2022-11-12T08:07:35;17.77;;;7.35;;
62796;SDS011;48839;48.546;-4.178;2022-11-12T08:10:01;18.58;;;7.47;;
62796;SDS011;48839;48.546;-4.178;2022-11-12T08:12:27;12.55;;;6.30;;
62796;SDS011;48839;48.546;-4.178;2022-11-12T08:14:53;11.50;;;5.53;;
62796;SDS011;48839;48.546;-4.178;2022-11-12T08:17:19;7.60;;;5.28;;
62796;SDS011;48839;48.546;-4.178;2022-11-12T08:19:45;7.57;;;4.63;;
62796;SDS011;48839;48.546;-4.178;2022-11-12T08:22:11;8.27;;;4.22;;
62796;SDS011;48839;48.546;-4.178;2022-11-12T08:24:37;13.25;;;5.47;;
62796;SDS011;48839;48.546;-4.178;2022-11-12T08:27:03;10.27;;;4.82;;
62796;SDS011;48839;48.546;-4.178;2022-11-12T08:29:29;9.32;;;4.57;;
62796;SDS011;48839;48.546;-4.178;2022-11-12T08:31:55;9.65;;;4.25;;
62796;SDS011;48839;48.546;-4.178;2022-11-12T08:34:21;9.05;;;3.90;;
62796;SDS011;48839;48.546;-4.178;2022-11-12T08:36:47;9.40;;;4.25;;
62796;SDS011;48839;48.546;-4.178;2022-11-12T08:39:14;9.45;;;4.03;;
62796;SDS011;48839;48.546;-4.178;2022-11-12T08:41:40;6.18;;;4.25;;
62796;SDS011;48839;48.546;-4.178;2022-11-12T08:44:06;11.07;;;4.03;;
62796;SDS011;48839;48.546;-4.178;2022-11-12T08:46:32;9.35;;;4.32;;
62796;SDS011;48839;48.546;-4.178;2022-11-12T08:48:58;5.90;;;3.67;;
62796;SDS011;48839;48.546;-4.178;2022-11-12T08:51:24;10.10;;;3.92;;
62796;SDS011;48839;48.546;-4.178;2022-11-12T08:53:50;6.95;;;3.47;;
62796;SDS011;48839;48.546;-4.178;2022-11-12T08:56:16;9.18;;;4.18;;
62796;SDS011;48839;48.546;-4.178;2022-11-12T08:58:42;12.98;;;4.43;;
62796;SDS011;48839;48.546;-4.178;2022-11-12T09:01:08;9.48;;;4.45;;
62796;SDS011;48839;48.546;-4.178;2022-11-12T09:03:34;9.80;;;4.18;;
62796;SDS011;48839;48.546;-4.178;2022-11-12T09:06:04;11.07;;;4.63;;
62796;SDS011;48839;48.546;-4.178;2022-11-12T09:08:31;10.20;;;4.78;;
62796;SDS011;48839;48.546;-4.178;2022-11-12T09:10:57;10.95;;;5.07;;
62796;SDS011;48839;48.546;-4.178;2022-11-12T09:13:23;13.25;;;4.40;;
62796;SDS011;48839;48.546;-4.178;2022-11-12T09:15:49;9.45;;;4.45;;
62796;SDS011;48839;48.546;-4.178;2022-11-12T09:18:16;7.78;;;3.88;;
62796;SDS011;48839;48.546;-4.178;2022-11-12T09:20:43;7.97;;;4.20;;
62796;SDS011;48839;48.546;-4.178;2022-11-12T09:23:10;10.20;;;4.97;;
62796;SDS011;48839;48.546;-4.178;2022-11-12T09:25:37;11.18;;;4.85;;
62796;SDS011;48839;48.546;-4.178;2022-11-12T09:28:07;9.77;;;4.30;;
62796;SDS011;48839;48.546;-4.178;2022-11-12T09:30:34;16.10;;;4.82;;
62796;SDS011;48839;48.546;-4.178;2022-11-12T09:33:00;13.57;;;4.40;;
62796;SDS011;48839;48.546;-4.178;2022-11-12T09:35:26;8.35;;;4.15;;
62796;SDS011;48839;48.546;-4.178;2022-11-12T09:37:52;11.25;;;3.97;;
62796;SDS011;48839;48.546;-4.178;2022-11-12T09:40:18;10.13;;;3.92;;
62796;SDS011;48839;48.546;-4.178;2022-11-12T09:42:49;7.93;;;4.55;;
62796;SDS011;48839;48.546;-4.178;2022-11-12T09:47:46;11.90;;;4.47;;
62796;SDS011;48839;48.546;-4.178;2022-11-12T09:52:40;5.22;;;3.45;;
62796;SDS011;48839;48.546;-4.178;2022-11-12T09:57:33;7.05;;;3.65;;
62796;SDS011;48839;48.546;-4.178;2022-11-12T09:59:59;9.23;;;3.88;;
62796;SDS011;48839;48.546;-4.178;2022-11-12T10:02:38;9.68;;;3.50;;
62796;SDS011;48839;48.546;-4.178;2022-11-12T10:10:07;7.32;;;3.55;;
62796;SDS011;48839;48.546;-4.178;2022-11-12T10:18:08;5.78;;;3.17;;
62796;SDS011;48839;48.546;-4.178;2022-11-12T10:23:26;10.90;;;2.72;;
62796;SDS011;48839;48.546;-4.178;2022-11-12T10:25:56;6.80;;;2.92;;
62796;SDS011;48839;48.546;-4.178;2022-11-12T10:28:32;11.23;;;2.78;;
62796;SDS011;48839;48.546;-4.178;2022-11-12T10:31:00;6.75;;;3.17;;
62796;SDS011;48839;48.546;-4.178;2022-11-12T10:33:30;5.93;;;2.70;;
62796;SDS011;48839;48.546;-4.178;2022-11-12T10:35:57;7.28;;;3.50;;
62796;SDS011;48839;48.546;-4.178;2022-11-12T10:38:30;9.75;;;3.97;;
62796;SDS011;48839;48.546;-4.178;2022-11-12T10:40:57;8.80;;;3.20;;
62796;SDS011;48839;48.546;-4.178;2022-11-12T10:43:23;7.43;;;3.10;;
62796;SDS011;48839;48.546;-4.178;2022-11-12T10:45:50;6.78;;;2.63;;
62796;SDS011;48839;48.546;-4.178;2022-11-12T10:50:45;7.13;;;3.20;;
62796;SDS011;48839;48.546;-4.178;2022-11-12T10:53:11;11.38;;;2.72;;
62796;SDS011;48839;48.546;-4.178;2022-11-12T10:56:37;11.98;;;2.88;;
62796;SDS011;48839;48.546;-4.178;2022-11-12T10:58:32;15.18;;;3.22;;
62796;SDS011;48839;48.546;-4.178;2022-11-12T11:05:52;8.68;;;2.83;;
62796;SDS011;48839;48.546;-4.178;2022-11-12T11:11:12;7.90;;;2.85;;
62796;SDS011;48839;48.546;-4.178;2022-11-12T11:13:39;8.50;;;2.90;;
62796;SDS011;48839;48.546;-4.178;2022-11-12T11:16:06;7.88;;;3.08;;
62796;SDS011;48839;48.546;-4.178;2022-11-12T11:18:33;15.50;;;3.40;;
62796;SDS011;48839;48.546;-4.178;2022-11-12T11:21:02;9.57;;;3.17;;
62796;SDS011;48839;48.546;-4.178;2022-11-12T11:31:31;9.80;;;3.50;;
62796;SDS011;48839;48.546;-4.178;2022-11-12T11:36:37;18.70;;;5.35;;
62796;SDS011;48839;48.546;-4.178;2022-11-12T11:39:17;11.25;;;2.85;;
62796;SDS011;48839;48.546;-4.178;2022-11-12T11:41:53;9.32;;;3.35;;
62796;SDS011;48839;48.546;-4.178;2022-11-12T11:44:30;11.20;;;3.75;;
62796;SDS011;48839;48.546;-4.178;2022-11-12T11:47:14;13.85;;;3.30;;
62796;SDS011;48839;48.546;-4.178;2022-11-12T11:57:08;9.50;;;2.90;;
62796;SDS011;48839;48.546;-4.178;2022-11-12T12:04:49;8.30;;;2.67;;
62796;SDS011;48839;48.546;-4.178;2022-11-12T12:12:42;10.07;;;3.17;;
62796;SDS011;48839;48.546;-4.178;2022-11-12T12:23:10;10.60;;;2.92;;
62796;SDS011;48839;48.546;-4.178;2022-11-12T12:25:39;7.63;;;2.75;;
62796;SDS011;48839;48.546;-4.178;2022-11-12T12:28:12;11.23;;;3.33;;
62796;SDS011;48839;48.546;-4.178;2022-11-12T12:30:40;8.73;;;2.53;;
62796;SDS011;48839;48.546;-4.178;2022-11-12T12:35:40;11.25;;;2.88;;
62796;SDS011;48839;48.546;-4.178;2022-11-12T12:38:10;10.15;;;2.65;;
62796;SDS011;48839;48.546;-4.178;2022-11-12T12:40:42;6.95;;;2.58;;
62796;SDS011;48839;48.546;-4.178;2022-11-12T12:43:19;9.75;;;2.50;;
62796;SDS011;48839;48.546;-4.178;2022-11-12T12:45:48;9.68;;;3.28;;
62796;SDS011;48839;48.546;-4.178;2022-11-12T12:48:47;9.68;;;3.30;;
62796;SDS011;48839;48.546;-4.178;2022-11-12T12:51:06;11.98;;;2.63;;
62796;SDS011;48839;48.546;-4.178;2022-11-12T12:53:33;10.38;;;2.90;;
62796;SDS011;48839;48.546;-4.178;2022-11-12T12:56:00;9.20;;;2.53;;
62796;SDS011;48839;48.546;-4.178;2022-11-12T12:58:28;9.27;;;2.70;;
62796;SDS011;48839;48.546;-4.178;2022-11-12T13:00:57;11.45;;;2.38;;
62796;SDS011;48839;48.546;-4.178;2022-11-12T13:08:53;10.43;;;2.55;;
62796;SDS011;48839;48.546;-4.178;2022-11-12T13:16:56;7.47;;;2.22;;
62796;SDS011;48839;48.546;-4.178;2022-11-12T13:19:27;7.10;;;2.20;;
62796;SDS011;48839;48.546;-4.178;2022-11-12T13:37:44;8.00;;;2.15;;
62796;SDS011;48839;48.546;-4.178;2022-11-12T13:40:11;9.48;;;3.38;;
62796;SDS011;48839;48.546;-4.178;2022-11-12T13:42:38;6.43;;;2.35;;
62796;SDS011;48839;48.546;-4.178;2022-11-12T13:45:14;14.15;;;2.42;;
62796;SDS011;48839;48.546;-4.178;2022-11-12T13:47:40;7.90;;;2.28;;
62796;SDS011;48839;48.546;-4.178;2022-11-12T13:50:07;7.90;;;2.30;;
62796;SDS011;48839;48.546;-4.178;2022-11-12T13:52:34;12.52;;;3.00;;
62796;SDS011;48839;48.546;-4.178;2022-11-12T13:55:01;11.25;;;2.22;;
62796;SDS011;48839;48.546;-4.178;2022-11-12T13:57:29;10.45;;;3.00;;
62796;SDS011;48839;48.546;-4.178;2022-11-12T14:02:40;6.97;;;2.20;;
62796;SDS011;48839;48.546;-4.178;2022-11-12T14:05:15;6.78;;;2.58;;
62796;SDS011;48839;48.546;-4.178;2022-11-12T14:10:24;4.53;;;1.88;;
62796;SDS011;48839;48.546;-4.178;2022-11-12T14:20:32;10.48;;;2.42;;
62796;SDS011;48839;48.546;-4.178;2022-11-12T14:25:35;6.25;;;2.00;;
62796;SDS011;48839;48.546;-4.178;2022-11-12T14:31:12;8.88;;;3.08;;
62796;SDS011;48839;48.546;-4.178;2022-11-12T14:33:39;9.50;;;2.58;;
62796;SDS011;48839;48.546;-4.178;2022-11-12T14:36:06;11.60;;;3.08;;
62796;SDS011;48839;48.546;-4.178;2022-11-12T14:38:50;12.80;;;2.80;;
62796;SDS011;48839;48.546;-4.178;2022-11-12T14:41:21;8.82;;;2.17;;
62796;SDS011;48839;48.546;-4.178;2022-11-12T14:43:52;12.07;;;2.70;;
62796;SDS011;48839;48.546;-4.178;2022-11-12T14:46:26;6.20;;;2.05;;
62796;SDS011;48839;48.546;-4.178;2022-11-12T14:48:59;7.00;;;2.30;;
62796;SDS011;48839;48.546;-4.178;2022-11-12T14:51:27;7.05;;;2.35;;
62796;SDS011;48839;48.546;-4.178;2022-11-12T14:53:57;13.57;;;2.63;;
62796;SDS011;48839;48.546;-4.178;2022-11-12T14:56:32;12.95;;;3.75;;
62796;SDS011;48839;48.546;-4.178;2022-11-12T14:59:00;8.13;;;3.15;;
62796;SDS011;48839;48.546;-4.178;2022-11-12T15:01:28;8.75;;;2.60;;
62796;SDS011;48839;48.546;-4.178;2022-11-12T15:06:51;10.95;;;3.08;;
62796;SDS011;48839;48.546;-4.178;2022-11-12T15:09:17;11.27;;;2.55;;
62796;SDS011;48839;48.546;-4.178;2022-11-12T15:11:46;10.68;;;2.72;;
62796;SDS011;48839;48.546;-4.178;2022-11-12T15:14:20;11.75;;;2.60;;
62796;SDS011;48839;48.546;-4.178;2022-11-12T15:16:46;10.82;;;3.10;;
62796;SDS011;48839;48.546;-4.178;2022-11-12T15:26:38;9.07;;;3.15;;
62796;SDS011;48839;48.546;-4.178;2022-11-12T15:29:24;10.95;;;3.90;;
62796;SDS011;48839;48.546;-4.178;2022-11-12T15:31:52;10.43;;;2.85;;
62796;SDS011;48839;48.546;-4.178;2022-11-12T15:36:58;12.30;;;4.68;;
62796;SDS011;48839;48.546;-4.178;2022-11-12T15:39:25;15.63;;;3.95;;
62796;SDS011;48839;48.546;-4.178;2022-11-12T15:41:59;11.85;;;2.83;;
62796;SDS011;48839;48.546;-4.178;2022-11-12T15:44:28;13.85;;;2.58;;
62796;SDS011;48839;48.546;-4.178;2022-11-12T15:46:57;8.23;;;2.55;;
62796;SDS011;48839;48.546;-4.178;2022-11-12T15:49:23;8.93;;;2.80;;
62796;SDS011;48839;48.546;-4.178;2022-11-12T15:51:49;12.60;;;2.97;;
62796;SDS011;48839;48.546;-4.178;2022-11-12T15:54:15;6.43;;;2.63;;
62796;SDS011;48839;48.546;-4.178;2022-11-12T15:56:41;6.95;;;2.97;;
62796;SDS011;48839;48.546;-4.178;2022-11-12T15:59:09;9.27;;;2.80;;
62796;SDS011;48839;48.546;-4.178;2022-11-12T16:01:37;12.02;;;3.53;;
62796;SDS011;48839;48.546;-4.178;2022-11-12T16:04:03;14.25;;;4.45;;
62796;SDS011;48839;48.546;-4.178;2022-11-12T16:06:29;12.75;;;4.50;;
62796;SDS011;48839;48.546;-4.178;2022-11-12T16:08:55;11.20;;;3.60;;
62796;SDS011;48839;48.546;-4.178;2022-11-12T16:11:21;12.40;;;3.30;;
62796;SDS011;48839;48.546;-4.178;2022-11-12T16:14:05;10.82;;;3.45;;
62796;SDS011;48839;48.546;-4.178;2022-11-12T16:16:32;10.95;;;3.55;;
62796;SDS011;48839;48.546;-4.178;2022-11-12T16:18:58;12.80;;;3.65;;
62796;SDS011;48839;48.546;-4.178;2022-11-12T16:21:24;18.92;;;3.53;;
62796;SDS011;48839;48.546;-4.178;2022-11-12T16:23:50;11.23;;;4.28;;
62796;SDS011;48839;48.546;-4.178;2022-11-12T16:26:21;17.70;;;3.90;;
62796;SDS011;48839;48.546;-4.178;2022-11-12T16:28:48;11.73;;;4.20;;
62796;SDS011;48839;48.546;-4.178;2022-11-12T16:31:14;13.60;;;3.60;;
62796;SDS011;48839;48.546;-4.178;2022-11-12T16:33:40;9.60;;;3.47;;
62796;SDS011;48839;48.546;-4.178;2022-11-12T16:36:12;7.10;;;2.95;;
62796;SDS011;48839;48.546;-4.178;2022-11-12T16:38:39;6.67;;;2.77;;
62796;SDS011;48839;48.546;-4.178;2022-11-12T16:41:07;9.25;;;3.00;;